Ebro, FL (32437)

6:50 AM CDT on April 25, 2015 (GMT -0500)
Northwest Florida Beaches International | | Change Station
CLOSE
Current Station
Airport
Location: Panama City,
Elevation: 69 ft
Nearby Weather Stations
Active Advisory: Tornado Watch, Flood Warning

Elev 69 ft 30.36 °N, 85.80 °W | Updated 57 minutes ago

Overcast
Overcast
76 °F
Feels Like 76 °F
N
10
Wind Variable Wind from South

Today
High -- | Low -- °F
--% Chance of Precip.
Yesterday
High -- | Low -- °F
Precip. -- in
6:06 AM 7:17 PM
Waxing Crescent, 45% visible
Pressure 29.90 in
Visibility 10.0 miles
Clouds Overcast 700 ft
Dew Point 73 °F
Humidity 91%
Rainfall 0.00 in
Snow Depth Not available.
UV 0 out of 12
Pollen 8.70 out of 12
Air Quality Not available.
Flu Activity Local Activity
METAR KECP 251053Z 17009KT 10SM OVC007 24/23 A2987 RMK AO2 CIG 006V010 SLP124 T02440228 $

More Conditions Fewer Conditions

Pressure 29.90 in
Visibility 10.0 miles
Clouds Overcast 700 ft
Dew Point 73 °F
Humidity 91%
Rainfall 0.00 in
Snow Depth Not available.
UV 0 out of 12
Pollen 8.70 out of 12
Air Quality Not available.
Flu Activity Local Activity
METAR KECP 251053Z 17009KT 10SM OVC007 24/23 A2987 RMK AO2 CIG 006V010 SLP124 T02440228 $

More Conditions Fewer Conditions

10-Day Weather Forecast

Almanac

Astronomy

Apr. 25, 2015 Rise Set
Actual Time
Civil Twilight
Nautical Twilight
Astronomical Twilight
Moon
Length of Visible Light
Length of Day
Tomorrow will be .
, % of the Moon is Illuminated

Today's Extremes

State Highs State Lows

Community

WunderPhotos

Upload Photos

1,816,639 photos uploaded!

WunderBlogs® & News

Nearby

Air Quality

  Air Quality AQ Index Pollutant
Not available.

Snow Depth

Station Depth Elevation

Earthquake Activity

City Distance Mag. Time & Date
Minimum magnitude displayed is 2.5.

Coastal Water Temperatures

Place Temperature

Stations

Nearby Weather Stations

Station Location Temp. Windchill Dew Point Humidity Wind Precip. Elev Updated Type
                   
Tornado Watch
Statement as of 6:03 AM CDT on April 25, 2015

Tornado Watch 108 remains in effect until 1200 PM CDT for the
following locations

FL
. Florida counties included are

Bay Escambia Holmes
Jackson Okaloosa Santa Rosa
Walton Washington




Flood Warning
Statement as of 10:40 PM CDT on April 24, 2015

... Flood Warning extended until Saturday afternoon... the Flood
Warning continues for
the Choctawhatchee River near Caryville (us 90).
* Until Saturday afternoon.
* At 10:00 PM Friday the stage was 12.4 feet.
* Minor flooding is occurring and minor flooding is forecast.
* Flood stage is 12.0 feet.
* Forecast: the river will continue to fall to below flood stage by
tomorrow morning.
* Impact: at 12.0 feet: extensive lowland flooding will occur.


Lat... Lon 3099 8588 3085 8591 3077 8589 3070 8592 3070 8581 3099 8580